Time;durP1;ratioP1;P1;durP2;ratioP2;P2;SDS_P1;SDS_P2;PMS_P1;PMS_P2;Temp;Humidity;BMP_temperature;BMP_pressure;BME280_temperature;BME280_humidity;BME280_pressure;Samples;Min_cycle;Max_cycle;Signal;HPM_P1;HPM_P2
2023/12/21 00:01:46;;;;;;;2.25;1.33;;;7.70;99.90;;;8.23;100.00;99271.63;5071013;28;20442;-79
2023/12/21 00:04:11;;;;;;;2.28;1.42;;;7.80;99.90;;;8.35;100.00;99267.00;5076351;28;20045;-80
2023/12/21 00:06:37;;;;;;;2.40;1.20;;;7.80;99.90;;;8.37;100.00;99264.06;5069457;28;20476;-80
2023/12/21 00:09:06;;;;;;;1.83;1.15;;;7.80;99.90;;;8.39;100.00;99254.59;5071902;28;20032;-81
2023/12/21 00:11:32;;;;;;;2.15;1.35;;;7.80;99.90;;;8.37;100.00;99275.75;5063955;28;20071;-78
2023/12/21 00:13:59;;;;;;;2.20;1.08;;;7.80;99.90;;;8.51;100.00;99272.84;5071648;28;20040;-79
2023/12/21 00:16:25;;;;;;;2.22;1.10;;;7.80;99.90;;;8.42;100.00;99267.72;5047028;28;20142;-80
2023/12/21 00:18:50;;;;;;;2.15;1.10;;;7.80;99.90;;;8.48;100.00;99272.19;5048909;28;20083;-79
2023/12/21 00:21:16;;;;;;;2.47;1.23;;;7.80;99.90;;;8.51;100.00;99275.56;5062834;28;20093;-80
2023/12/21 00:23:42;;;;;;;3.25;1.17;;;7.80;99.90;;;8.53;100.00;99284.31;5040950;28;20029;-81
2023/12/21 00:26:07;;;;;;;2.78;1.23;;;7.80;99.90;;;8.58;100.00;99266.19;5079833;28;20040;-80
2023/12/21 00:28:33;;;;;;;2.25;1.35;;;7.80;99.90;;;8.61;100.00;99281.22;5060633;28;20167;-81
2023/12/21 00:30:59;;;;;;;1.88;1.05;;;7.90;99.90;;;8.58;100.00;99276.25;5075514;28;20085;-79
2023/12/21 00:33:24;;;;;;;1.42;1.00;;;7.90;99.90;;;8.51;100.00;99267.41;5067646;28;20069;-80
2023/12/21 00:35:51;;;;;;;1.63;1.00;;;7.90;99.90;;;8.46;100.00;99260.75;5069786;28;20130;-80
2023/12/21 00:38:17;;;;;;;2.65;0.93;;;7.90;99.90;;;8.51;100.00;99267.41;5071462;28;20102;-78
2023/12/21 00:40:43;;;;;;;4.13;0.82;;;7.90;99.90;;;8.44;100.00;99267.50;5068871;28;20422;-80
2023/12/21 00:43:08;;;;;;;1.92;0.60;;;7.90;99.90;;;8.39;100.00;99281.78;5069752;28;20043;-79
2023/12/21 00:45:34;;;;;;;0.80;0.55;;;7.90;99.90;;;8.49;100.00;99252.16;5062870;28;20040;-80
2023/12/21 00:48:00;;;;;;;1.10;0.65;;;7.90;99.90;;;8.44;100.00;99257.44;5071308;28;20033;-79
2023/12/21 00:50:26;;;;;;;1.05;0.60;;;7.90;99.90;;;8.43;100.00;99235.94;5069758;28;20482;-78
2023/12/21 00:52:52;;;;;;;1.42;0.68;;;7.90;99.90;;;8.47;100.00;99232.50;5069726;28;20071;-79
2023/12/21 00:55:17;;;;;;;1.25;0.68;;;7.90;99.90;;;8.45;100.00;99218.31;5076131;28;20048;-79
2023/12/21 00:57:43;;;;;;;0.98;0.57;;;7.90;99.90;;;8.54;100.00;99223.44;5076379;28;20499;-79
2023/12/21 01:00:10;;;;;;;1.70;0.52;;;7.90;99.90;;;8.44;100.00;99221.28;5045191;28;20082;-79
2023/12/21 01:02:36;;;;;;;1.40;0.65;;;7.90;99.90;;;8.39;100.00;99219.28;5047729;28;20393;-79
2023/12/21 01:05:04;;;;;;;1.35;0.70;;;7.90;99.90;;;8.48;100.00;99203.44;5081695;28;20052;-80
2023/12/21 01:07:29;;;;;;;1.40;0.75;;;7.90;99.90;;;8.47;100.00;99199.88;5060532;28;20032;-78
2023/12/21 01:09:55;;;;;;;1.00;0.70;;;7.90;99.90;;;8.38;100.00;99203.22;5080770;28;20033;-78
2023/12/21 01:12:21;;;;;;;0.98;0.60;;;7.90;99.90;;;8.45;100.00;99202.00;5073027;28;20430;-80
2023/12/21 01:14:46;;;;;;;1.33;0.60;;;7.90;99.90;;;8.56;100.00;99203.09;5070135;28;20036;-80
2023/12/21 01:17:12;;;;;;;2.00;0.73;;;7.90;99.90;;;8.43;100.00;99198.72;5065083;28;20040;-80
2023/12/21 01:19:38;;;;;;;0.88;0.50;;;7.90;99.90;;;8.50;100.00;99193.19;5071841;28;20044;-80
2023/12/21 01:22:03;;;;;;;0.50;0.32;;;7.90;99.90;;;8.44;100.00;99184.06;5070771;28;20041;-80
2023/12/21 01:24:29;;;;;;;1.45;0.52;;;7.90;99.90;;;8.41;100.00;99198.13;5048228;28;20047;-80
2023/12/21 01:26:55;;;;;;;0.73;0.40;;;7.90;99.90;;;8.42;100.00;99188.91;5076121;28;20032;-80
2023/12/21 01:29:21;;;;;;;1.27;0.40;;;7.90;99.90;;;8.50;100.00;99182.31;5053453;28;20473;-79
2023/12/21 01:31:46;;;;;;;1.25;0.60;;;7.90;99.90;;;8.46;100.00;99198.22;5076020;28;20037;-79
2023/12/21 01:34:13;;;;;;;0.40;0.40;;;7.90;99.90;;;8.54;100.00;99193.53;5076691;28;20036;-80
2023/12/21 01:36:39;;;;;;;0.40;0.38;;;7.90;99.90;;;8.57;100.00;99195.78;5073763;28;20036;-79
2023/12/21 01:39:06;;;;;;;1.13;0.30;;;7.90;99.90;;;8.42;100.00;99188.91;5076472;28;20043;-80
2023/12/21 01:41:34;;;;;;;0.60;0.40;;;7.90;99.90;;;8.55;100.00;99181.59;5050801;28;20388;-80
2023/12/21 01:43:59;;;;;;;1.75;0.40;;;7.90;99.90;;;8.51;100.00;99177.72;5065147;28;20326;-81
2023/12/21 01:46:25;;;;;;;0.47;0.40;;;7.90;99.90;;;8.49;100.00;99157.03;5073816;28;20433;-81
2023/12/21 01:48:51;;;;;;;0.90;0.50;;;7.90;99.90;;;8.44;100.00;99140.56;5081735;28;20122;-81
2023/12/21 01:51:19;;;;;;;0.50;0.35;;;7.90;99.90;;;8.61;100.00;99134.41;5080147;28;20041;-81
2023/12/21 01:53:45;;;;;;;0.52;0.45;;;7.90;99.90;;;8.57;100.00;99149.56;5081164;28;20130;-80
2023/12/21 01:56:12;;;;;;;0.73;0.40;;;7.90;99.90;;;8.53;100.00;99115.78;5075537;28;20037;-81
2023/12/21 01:58:39;;;;;;;0.83;0.50;;;7.90;99.90;;;8.49;100.00;99124.41;5072004;28;20032;-80
2023/12/21 02:01:06;;;;;;;1.67;0.60;;;7.90;99.90;;;8.66;100.00;99115.50;5067509;28;20430;-81
2023/12/21 02:03:34;;;;;;;1.00;0.50;;;7.90;99.90;;;8.49;100.00;99104.53;5076275;28;20056;-78
2023/12/21 02:05:59;;;;;;;1.40;0.60;;;7.90;99.90;;;8.57;100.00;99106.06;5076470;28;20044;-78
2023/12/21 02:08:26;;;;;;;1.85;0.70;;;7.90;99.90;;;8.60;100.00;99111.03;5081416;28;20033;-78
2023/12/21 02:11:05;;;;;;;2.05;0.70;;;7.90;99.90;;;8.64;100.00;99093.16;5075867;28;20032;-79
2023/12/21 02:13:31;;;;;;;1.08;0.60;;;7.90;99.90;;;8.70;100.00;99099.53;5082729;28;20400;-79
2023/12/21 02:16:02;;;;;;;0.85;0.60;;;7.90;99.90;;;8.65;100.00;99100.25;5043906;28;20032;-80
2023/12/21 02:18:28;;;;;;;1.13;0.73;;;8.00;99.90;;;8.60;100.00;99094.72;5075821;28;20043;-79
2023/12/21 02:20:56;;;;;;;0.90;0.70;;;8.00;99.90;;;8.58;100.00;99083.25;5062687;28;20037;-79
2023/12/21 02:23:26;;;;;;;0.50;0.40;;;8.00;99.90;;;8.71;100.00;99072.06;5074140;28;20040;-79
2023/12/21 02:25:53;;;;;;;1.45;0.82;;;8.00;99.90;;;8.57;100.00;99073.44;5076056;28;20043;-79
2023/12/21 02:28:19;;;;;;;1.13;0.57;;;8.00;99.90;;;8.65;100.00;99070.34;5046453;28;20186;-79
2023/12/21 02:30:47;;;;;;;1.90;0.93;;;8.00;99.90;;;8.60;100.00;99062.91;5074632;28;20127;-80
2023/12/21 02:33:14;;;;;;;1.08;0.73;;;8.00;99.90;;;8.72;100.00;99064.75;5075210;28;20066;-79
2023/12/21 02:35:40;;;;;;;1.17;0.70;;;8.00;99.90;;;8.68;100.00;99064.41;5072019;28;20039;-79
2023/12/21 02:38:05;;;;;;;1.85;0.82;;;8.00;99.90;;;8.66;100.00;99047.53;5065620;28;20040;-80
2023/12/21 02:40:31;;;;;;;1.33;0.70;;;8.00;99.90;;;8.59;100.00;99033.25;5041739;28;20041;-80
2023/12/21 02:42:57;;;;;;;1.50;0.77;;;8.00;99.90;;;8.69;100.00;99038.06;5072147;28;20049;-79
2023/12/21 02:45:23;;;;;;;1.42;0.70;;;8.00;99.90;;;8.61;100.00;99033.84;5077227;28;20036;-80
2023/12/21 02:47:49;;;;;;;1.00;0.68;;;8.00;99.90;;;8.66;100.00;99044.81;5077970;28;20036;-80
2023/12/21 02:50:15;;;;;;;0.93;0.50;;;8.00;99.90;;;8.75;100.00;99029.75;5072307;28;20040;-80
2023/12/21 02:52:41;;;;;;;1.48;0.52;;;8.00;99.90;;;8.65;100.00;99029.56;5074615;28;20153;-79
2023/12/21 02:55:07;;;;;;;0.93;0.65;;;8.00;99.90;;;8.65;100.00;99032.28;5073477;28;20040;-80
2023/12/21 02:57:33;;;;;;;0.60;0.40;;;8.00;99.90;;;8.57;100.00;99032.69;5077351;28;20039;-80
2023/12/21 02:59:58;;;;;;;0.40;0.40;;;8.00;99.90;;;8.70;100.00;99012.53;5072023;28;20709;-79
2023/12/21 03:02:24;;;;;;;0.38;0.30;;;8.00;99.90;;;8.63;100.00;99018.94;5076223;28;20032;-80
2023/12/21 03:04:50;;;;;;;1.35;0.40;;;8.00;99.90;;;8.67;100.00;99021.97;5052064;28;20409;-81
2023/12/21 03:07:17;;;;;;;1.00;0.57;;;8.00;99.90;;;8.73;100.00;99010.13;5069828;28;20105;-80
2023/12/21 03:09:42;;;;;;;0.40;0.28;;;8.00;99.90;;;8.61;100.00;98996.59;5084746;28;20076;-80
2023/12/21 03:12:08;;;;;;;0.30;0.30;;;8.00;99.90;;;8.71;100.00;98998.66;5072253;28;20090;-79
2023/12/21 03:14:34;;;;;;;0.28;0.28;;;8.00;99.90;;;8.65;100.00;99013.25;5055935;28;20472;-78
2023/12/21 03:17:00;;;;;;;0.47;0.30;;;8.00;99.90;;;8.66;100.00;98987.72;5072625;28;20044;-79
2023/12/21 03:19:25;;;;;;;0.52;0.32;;;8.00;99.90;;;8.68;100.00;98996.44;5044414;28;20489;-78
2023/12/21 03:21:51;;;;;;;0.68;0.40;;;;;;;8.67;100.00;98994.00;5073411;28;20036;-78
2023/12/21 03:24:17;;;;;;;0.45;0.30;;;8.00;99.90;;;8.60;100.00;99005.00;5064528;28;20059;-79
2023/12/21 03:26:45;;;;;;;0.40;0.30;;;8.00;99.90;;;8.68;100.00;98996.44;5071677;28;20114;-79
2023/12/21 03:29:11;;;;;;;0.50;0.30;;;8.00;99.90;;;8.68;100.00;98960.28;5042705;28;20078;-79
2023/12/21 03:31:37;;;;;;;0.65;0.30;;;8.00;99.90;;;8.72;100.00;98964.97;5071776;28;20495;-80
2023/12/21 03:34:02;;;;;;;0.90;0.40;;;8.00;99.90;;;8.68;100.00;98963.81;5070895;28;20036;-79
2023/12/21 03:36:28;;;;;;;0.43;0.38;;;8.10;99.90;;;8.72;100.00;98948.66;5066129;28;20089;-79
2023/12/21 03:38:54;;;;;;;1.00;0.50;;;8.10;99.90;;;8.82;100.00;98939.03;5078123;28;20043;-79
2023/12/21 03:41:19;;;;;;;0.50;0.30;;;8.10;99.90;;;8.75;100.00;98933.75;5071406;28;20041;-79
2023/12/21 03:43:45;;;;;;;0.38;0.25;;;8.10;99.90;;;8.85;100.00;98933.09;5071064;28;20475;-78
2023/12/21 03:46:11;;;;;;;1.60;0.52;;;8.10;99.90;;;8.80;100.00;98919.44;5071640;28;20085;-79
2023/12/21 03:48:36;;;;;;;0.98;0.40;;;8.10;99.90;;;8.78;100.00;98916.94;5077417;28;20522;-79
2023/12/21 03:51:02;;;;;;;1.27;0.38;;;8.10;99.90;;;8.72;100.00;98909.78;5077545;28;20060;-80
2023/12/21 03:53:28;;;;;;;1.02;0.50;;;8.10;99.90;;;8.76;100.00;98910.94;5073910;28;20035;-80
2023/12/21 03:55:53;;;;;;;1.02;0.50;;;8.10;99.90;;;8.82;100.00;98909.13;5052341;28;20060;-79
2023/12/21 03:58:19;;;;;;;0.88;0.40;;;8.10;99.90;;;8.71;100.00;98908.13;5074066;28;20082;-80
2023/12/21 04:00:45;;;;;;;0.30;0.30;;;8.10;99.90;;;8.76;100.00;98903.63;5074447;28;20063;-80
2023/12/21 04:03:11;;;;;;;0.68;0.30;;;8.10;99.90;;;8.73;100.00;98906.81;5074728;28;20039;-80
2023/12/21 04:05:38;;;;;;;0.52;0.40;;;8.10;99.90;;;8.70;100.00;98885.56;5053653;28;20082;-80
2023/12/21 04:08:06;;;;;;;1.45;0.50;;;8.20;99.90;;;8.73;100.00;98904.09;5071105;28;20123;-80
2023/12/21 04:10:32;;;;;;;0.38;0.30;;;8.20;99.90;;;8.76;100.00;98884.59;5039770;28;20512;-81
2023/12/21 04:12:57;;;;;;;0.52;0.40;;;8.20;99.90;;;8.84;100.00;98877.88;5069781;28;20099;-81
2023/12/21 04:15:23;;;;;;;0.55;0.32;;;8.20;99.90;;;8.83;100.00;98870.00;5052401;28;20029;-81
2023/12/21 04:17:49;;;;;;;0.50;0.47;;;8.20;99.90;;;8.84;100.00;98877.88;5071048;28;20036;-80
2023/12/21 04:20:15;;;;;;;0.90;0.57;;;8.20;99.90;;;8.87;100.00;98871.94;5042500;28;20374;-80
2023/12/21 04:22:40;;;;;;;0.63;0.40;;;8.30;99.90;;;8.84;100.00;98882.50;5070667;28;20500;-80
2023/12/21 04:25:07;;;;;;;0.50;0.40;;;8.30;99.90;;;8.91;100.00;98859.50;5070653;28;20491;-80
2023/12/21 04:27:32;;;;;;;0.85;0.40;;;8.40;99.90;;;8.97;100.00;98857.69;5070852;28;20039;-81
2023/12/21 04:29:58;;;;;;;0.65;0.50;;;8.40;99.90;;;8.88;100.00;98842.88;5070260;28;20400;-81
2023/12/21 04:32:24;;;;;;;0.88;0.50;;;8.40;99.90;;;8.96;100.00;98837.00;5069926;28;20113;-81
2023/12/21 04:34:50;;;;;;;1.67;0.52;;;8.40;99.90;;;9.00;100.00;98840.84;5070186;28;20059;-81
2023/12/21 04:37:15;;;;;;;0.63;0.40;;;8.40;99.90;;;8.94;100.00;98846.50;5069934;28;20048;-81
2023/12/21 04:39:41;;;;;;;1.67;0.70;;;8.40;99.90;;;8.97;100.00;98819.59;5069982;28;20036;-82
2023/12/21 04:42:07;;;;;;;1.45;0.40;;;8.40;99.90;;;8.91;100.00;98807.84;5068836;28;20032;-80
2023/12/21 04:44:32;;;;;;;0.90;0.50;;;8.40;99.90;;;8.85;100.00;98810.72;5071074;28;20519;-80
2023/12/21 04:46:58;;;;;;;1.45;0.82;;;8.40;99.90;;;8.88;100.00;98807.50;5075080;28;20040;-80
2023/12/21 04:49:26;;;;;;;0.93;0.73;;;8.40;99.90;;;8.90;100.00;98808.91;5070116;28;20614;-80
2023/12/21 04:51:52;;;;;;;1.00;0.60;;;8.40;99.90;;;8.93;100.00;98804.84;5074908;28;20067;-81
2023/12/21 04:54:18;;;;;;;0.93;0.70;;;8.40;99.90;;;8.97;100.00;98827.75;5074091;28;20036;-80
2023/12/21 04:56:43;;;;;;;4.35;0.70;;;8.40;99.90;;;9.01;100.00;98828.88;5069366;28;20489;-80
2023/12/21 04:59:09;;;;;;;2.28;0.70;;;8.50;99.90;;;9.06;100.00;98825.44;5070588;28;20185;-81
2023/12/21 05:01:35;;;;;;;1.17;0.50;;;8.50;99.90;;;9.15;100.00;98828.53;5073000;28;20036;-80
2023/12/21 05:04:03;;;;;;;1.10;0.50;;;8.50;99.90;;;9.16;100.00;98836.47;5072194;28;20041;-80
2023/12/21 05:06:29;;;;;;;0.75;0.40;;;8.50;99.90;;;9.18;100.00;98825.31;5071168;28;20127;-80
2023/12/21 05:08:56;;;;;;;0.40;0.35;;;8.60;99.90;;;9.28;100.00;98838.22;5068266;28;20045;-81
2023/12/21 05:11:22;;;;;;;1.73;0.63;;;8.60;99.90;;;9.23;100.00;98846.34;5074687;28;20048;-81
2023/12/21 05:13:48;;;;;;;1.13;0.38;;;8.60;99.90;;;9.25;100.00;98836.81;5070077;28;20040;-81
2023/12/21 05:16:14;;;;;;;0.73;0.38;;;8.60;99.90;;;9.33;100.00;98819.25;5037197;28;20552;-80
2023/12/21 05:18:39;;;;;;;0.50;0.40;;;8.60;99.90;;;9.33;100.00;98822.81;5053971;28;20036;-81
2023/12/21 05:21:11;;;;;;;0.35;0.32;;;8.70;99.90;;;9.31;100.00;98829.56;5068685;28;20044;-81
2023/12/21 05:23:36;;;;;;;0.28;0.25;;;8.70;99.90;;;9.30;100.00;98804.25;5045562;28;20040;-79
2023/12/21 05:26:09;;;;;;;0.52;0.30;;;8.80;99.90;;;9.48;100.00;98821.31;5070176;28;20082;-80
2023/12/21 05:28:34;;;;;;;0.88;0.30;;;8.80;99.90;;;9.44;100.00;98828.34;5067017;28;20043;-80
2023/12/21 05:31:00;;;;;;;0.43;0.38;;;8.90;99.90;;;9.52;100.00;98810.75;5071255;28;20044;-80
2023/12/21 05:33:26;;;;;;;0.45;0.35;;;9.00;99.90;;;9.70;100.00;98817.75;5070136;28;20089;-80
2023/12/21 05:35:52;;;;;;;0.63;0.10;;;8.90;99.90;;;9.56;100.00;98829.06;5068863;28;20614;-81
2023/12/21 05:38:17;;;;;;;0.40;0.30;;;8.90;99.90;;;9.61;100.00;98820.09;5068703;28;20035;-80
2023/12/21 05:40:43;;;;;;;1.67;0.30;;;9.00;99.90;;;9.69;100.00;98813.38;5076050;28;20051;-82
2023/12/21 05:43:09;;;;;;;0.32;0.30;;;9.00;99.90;;;9.63;100.00;98790.72;5071016;28;20043;-79
2023/12/21 05:45:34;;;;;;;0.82;0.30;;;9.00;99.90;;;9.69;100.00;98799.78;5037604;28;20086;-83
2023/12/21 05:48:00;;;;;;;0.40;0.30;;;9.00;99.90;;;9.72;100.00;98791.09;5049031;28;20398;-80
2023/12/21 05:50:26;;;;;;;0.98;0.30;;;9.10;99.90;;;9.64;100.00;98776.88;5070276;28;20040;-79
2023/12/21 05:52:52;;;;;;;0.47;0.30;;;9.10;99.90;;;9.61;100.00;98771.94;5068331;28;20504;-79
2023/12/21 05:55:17;;;;;;;0.32;0.22;;;9.10;99.90;;;9.60;100.00;98774.91;5068637;28;20097;-80
2023/12/21 05:57:46;;;;;;;0.30;0.20;;;9.10;99.90;;;9.54;100.00;98770.50;5069404;28;20040;-79
2023/12/21 06:00:13;;;;;;;0.40;0.30;;;9.10;99.90;;;9.60;100.00;98764.00;5064756;28;20106;-80
2023/12/21 06:02:38;;;;;;;0.30;0.28;;;9.00;99.90;;;9.55;100.00;98769.41;5068494;28;20029;-80
2023/12/21 06:05:05;;;;;;;0.60;0.20;;;9.00;99.90;;;9.61;100.00;98752.88;5052452;28;20044;-81
2023/12/21 06:07:30;;;;;;;0.30;0.20;;;9.00;99.90;;;9.58;100.00;98744.41;5078153;28;20186;-81
2023/12/21 06:09:56;;;;;;;0.55;0.30;;;8.90;99.90;;;9.55;100.00;98726.69;5072398;28;20082;-82
2023/12/21 06:12:22;;;;;;;0.40;0.20;;;8.90;99.90;;;9.65;100.00;98736.84;5070025;28;20079;-83
2023/12/21 06:14:48;;;;;;;0.20;0.10;;;9.00;99.90;;;9.53;100.00;98698.06;5078648;28;20499;-79
2023/12/21 06:17:15;;;;;;;0.60;0.22;;;8.90;99.90;;;9.44;100.00;98720.31;5062556;28;20055;-81
2023/12/21 06:19:42;;;;;;;0.68;0.30;;;9.00;99.90;;;9.57;100.00;98705.47;5079897;28;20554;-79
2023/12/21 06:22:08;;;;;;;0.73;0.20;;;9.00;99.90;;;9.64;100.00;98699.78;5073786;28;20115;-79
2023/12/21 06:24:34;;;;;;;0.52;0.20;;;8.90;99.90;;;9.54;100.00;98703.25;5076552;28;20094;-79
2023/12/21 06:27:00;;;;;;;0.20;0.20;;;8.90;99.90;;;9.54;100.00;98691.53;5029475;28;20950;-80
2023/12/21 06:29:25;;;;;;;0.50;0.25;;;8.90;99.90;;;9.41;100.00;98703.66;5071706;28;20032;-78
2023/12/21 06:31:51;;;;;;;0.20;0.20;;;8.90;99.90;;;9.51;100.00;98671.09;5078963;28;20406;-79
2023/12/21 06:34:17;;;;;;;1.05;0.20;;;8.90;99.90;;;9.32;100.00;98668.75;5070864;28;20063;-80
2023/12/21 06:36:43;;;;;;;0.52;0.30;;;8.80;99.90;;;9.37;100.00;98648.13;5077496;28;20041;-80
2023/12/21 06:39:09;;;;;;;0.55;0.30;;;8.80;99.90;;;9.46;100.00;98650.13;5077543;28;20036;-82
2023/12/21 06:41:35;;;;;;;1.77;0.40;;;8.80;99.90;;;9.45;100.00;98642.19;5067175;28;20028;-81
2023/12/21 06:44:01;;;;;;;0.25;0.25;;;8.80;99.90;;;9.32;100.00;98633.38;5071003;28;20052;-80
2023/12/21 06:46:26;;;;;;;0.60;0.30;;;8.80;99.90;;;9.29;100.00;98614.84;5071521;28;20568;-81
2023/12/21 06:48:52;;;;;;;0.30;0.30;;;8.80;99.90;;;9.29;100.00;98622.19;5082585;28;20040;-80
2023/12/21 06:51:18;;;;;;;0.50;0.50;;;8.70;99.90;;;9.27;100.00;98602.56;5074357;28;20102;-81
2023/12/21 06:53:43;;;;;;;0.70;0.43;;;8.70;99.90;;;9.17;100.00;98589.69;5073507;28;20040;-80
2023/12/21 06:56:10;;;;;;;0.90;0.50;;;8.70;99.90;;;9.15;100.00;98584.53;5075619;28;20052;-81
2023/12/21 06:58:36;;;;;;;0.98;0.47;;;8.70;99.90;;;9.17;100.00;98565.22;5084786;28;20036;-78
2023/12/21 07:01:01;;;;;;;0.45;0.40;;;8.60;99.90;;;9.15;100.00;98561.94;5072815;28;20040;-79
2023/12/21 07:03:28;;;;;;;1.75;0.65;;;8.60;99.90;;;9.18;100.00;98564.97;5079662;28;20052;-79
2023/12/21 07:05:54;;;;;;;1.05;0.70;;;8.60;99.90;;;9.18;100.00;98537.75;5076608;28;20041;-80
2023/12/21 07:08:21;;;;;;;1.42;0.80;;;8.60;99.90;;;9.16;100.00;98520.88;5077217;28;20081;-81
2023/12/21 07:10:46;;;;;;;0.90;0.60;;;8.60;99.90;;;9.12;100.00;98499.88;5071848;28;20047;-81
2023/12/21 07:13:12;;;;;;;1.13;0.90;;;8.60;99.90;;;9.21;100.00;98518.19;5040317;28;20032;-80
2023/12/21 07:15:38;;;;;;;0.82;0.70;;;8.60;99.90;;;9.18;100.00;98501.56;5071458;28;20380;-80
2023/12/21 07:18:04;;;;;;;1.10;0.90;;;8.60;99.90;;;9.16;100.00;98484.69;5072817;28;20046;-84
2023/12/21 07:20:30;;;;;;;1.50;1.02;;;8.60;99.90;;;9.18;100.00;98479.78;5072423;28;20081;-83
2023/12/21 07:22:57;;;;;;;1.58;1.10;;;8.60;99.90;;;9.23;100.00;98459.97;5076137;28;20028;-83
2023/12/21 07:25:23;;;;;;;1.85;1.10;;;8.60;99.90;;;9.20;100.00;98480.34;5067466;28;20032;-82
2023/12/21 07:27:49;;;;;;;1.90;1.00;;;8.60;99.90;;;9.27;100.00;98461.09;5072443;28;20036;-81
2023/12/21 07:30:16;;;;;;;2.70;1.30;;;8.70;99.90;;;9.37;100.00;98454.91;5072605;28;20041;-82
2023/12/21 07:32:42;;;;;;;2.63;0.93;;;8.70;99.90;;;9.24;100.00;98443.38;5077781;28;20043;-82
2023/12/21 07:35:08;;;;;;;3.85;1.02;;;8.70;99.90;;;9.36;100.00;98426.84;5071548;28;20044;-82
2023/12/21 07:37:34;;;;;;;1.80;1.20;;;8.70;99.90;;;9.26;100.00;98422.16;5072426;28;20033;-82
2023/12/21 07:40:00;;;;;;;2.10;1.15;;;8.70;99.90;;;9.30;100.00;98398.81;5069878;28;20086;-82
2023/12/21 07:42:29;;;;;;;6.20;1.10;;;8.80;99.90;;;9.34;100.00;98380.88;5048345;28;20496;-81
2023/12/21 07:44:55;;;;;;;2.28;1.25;;;8.80;99.90;;;9.41;100.00;98391.50;5074735;28;20044;-81
2023/12/21 07:47:22;;;;;;;2.35;1.20;;;8.80;99.90;;;9.30;100.00;98368.88;5055539;28;20033;-81
2023/12/21 07:49:47;;;;;;;2.58;1.48;;;8.80;99.90;;;9.44;100.00;98373.84;5072314;28;20040;-81
2023/12/21 07:52:13;;;;;;;4.38;2.70;;;8.90;99.90;;;9.41;100.00;98361.56;5076415;28;20039;-81
2023/12/21 07:54:39;;;;;;;2.70;1.90;;;8.90;99.90;;;9.43;100.00;98355.88;5042141;28;20044;-81
2023/12/21 07:57:06;;;;;;;3.08;1.85;;;8.90;99.90;;;9.49;100.00;98347.47;5084454;28;20130;-81
2023/12/21 07:59:31;;;;;;;3.22;1.90;;;8.90;99.90;;;9.38;100.00;98353.13;5070828;28;20492;-80
2023/12/21 08:01:57;;;;;;;3.75;3.00;;;8.80;99.90;;;9.40;100.00;98372.72;5041445;28;20051;-79
2023/12/21 08:04:23;;;;;;;1.88;1.00;;;8.80;99.90;;;9.43;100.00;98342.25;5071828;28;20097;-81
2023/12/21 08:06:48;;;;;;;6.78;5.97;;;8.80;99.90;;;9.37;100.00;98316.13;5077570;28;20040;-80
2023/12/21 08:09:15;;;;;;;2.35;1.23;;;8.80;99.90;;;9.42;100.00;98327.84;5075705;28;20040;-82
2023/12/21 08:11:41;;;;;;;2.72;1.70;;;8.80;99.90;;;9.38;100.00;98315.03;5070795;28;20066;-79
2023/12/21 08:14:06;;;;;;;2.67;2.20;;;8.80;99.90;;;9.40;100.00;98308.22;5037940;28;20456;-81
2023/12/21 08:16:32;;;;;;;1.15;1.00;;;8.80;99.90;;;9.45;100.00;98304.72;5071473;28;20021;-82
2023/12/21 08:18:58;;;;;;;1.77;1.00;;;8.90;99.90;;;9.49;100.00;98311.25;5076216;28;20037;-80
2023/12/21 08:21:23;;;;;;;1.73;1.00;;;8.90;99.90;;;9.51;100.00;98309.06;5056487;28;20080;-81
2023/12/21 08:23:50;;;;;;;1.08;0.90;;;8.90;99.90;;;9.58;100.00;98297.94;5081723;28;20037;-79
2023/12/21 08:26:16;;;;;;;4.80;1.00;;;9.00;99.90;;;9.66;100.00;98310.22;5078945;28;20040;-82
2023/12/21 08:28:42;;;;;;;1.83;1.10;;;9.00;99.90;;;9.62;100.00;98286.25;5072975;28;20032;-80
2023/12/21 08:31:08;;;;;;;0.77;0.70;;;9.00;99.90;;;9.61;100.00;98292.78;5070527;28;20044;-81
2023/12/21 08:33:35;;;;;;;1.65;1.00;;;9.00;99.90;;;9.59;100.00;98302.31;5070766;28;20032;-81
2023/12/21 08:36:01;;;;;;;1.97;0.80;;;9.00;99.90;;;9.54;100.00;98288.69;5077169;28;20051;-81
2023/12/21 08:38:27;;;;;;;2.97;0.80;;;9.00;99.90;;;9.56;100.00;98272.91;5075854;28;20296;-80
2023/12/21 08:40:52;;;;;;;1.98;0.73;;;9.00;99.90;;;9.51;100.00;98281.84;5078298;28;20047;-80
2023/12/21 08:43:18;;;;;;;0.77;0.60;;;8.90;99.90;;;9.52;100.00;98294.38;5070536;28;20040;-81
2023/12/21 08:45:44;;;;;;;3.13;0.80;;;8.90;99.90;;;9.48;100.00;98296.00;5070441;28;20472;-79
2023/12/21 08:48:10;;;;;;;1.00;0.68;;;8.90;99.90;;;9.48;100.00;98277.78;5071088;28;20041;-80
2023/12/21 08:50:35;;;;;;;1.45;0.63;;;8.90;99.90;;;9.42;100.00;98261.69;5074408;28;20033;-80
2023/12/21 08:53:02;;;;;;;0.90;0.68;;;8.90;99.90;;;9.39;100.00;98245.91;5070808;28;20052;-79
2023/12/21 08:55:29;;;;;;;2.25;0.80;;;8.80;99.90;;;9.38;100.00;98233.41;5071241;28;20062;-80
2023/12/21 08:57:57;;;;;;;1.95;0.90;;;8.80;99.90;;;9.39;100.00;98251.34;5088243;28;20502;-80
2023/12/21 09:00:22;;;;;;;1.98;0.90;;;8.80;99.90;;;9.30;100.00;98221.97;5081151;28;20040;-81
2023/12/21 09:02:48;;;;;;;1.52;0.90;;;8.80;99.90;;;9.27;100.00;98237.97;5083332;28;20047;-78
2023/12/21 09:05:14;;;;;;;2.25;1.10;;;8.80;99.90;;;9.28;100.00;98217.84;5037359;28;20053;-79
2023/12/21 09:07:40;;;;;;;2.03;0.90;;;8.80;99.90;;;9.31;100.00;98204.53;5070944;28;20032;-80
2023/12/21 09:10:07;;;;;;;2.28;1.00;;;8.80;99.90;;;9.28;100.00;98215.97;5069954;28;20084;-79
2023/12/21 09:12:32;;;;;;;2.05;0.90;;;8.70;99.90;;;9.26;100.00;98190.91;5071087;28;20622;-79
2023/12/21 09:14:58;;;;;;;1.42;0.90;;;8.80;99.90;;;9.34;100.00;98184.13;5078784;28;20037;-80
2023/12/21 09:17:24;;;;;;;0.88;0.70;;;8.80;99.90;;;9.25;100.00;98174.88;5069899;28;20040;-81
2023/12/21 09:19:50;;;;;;;1.25;0.90;;;8.80;99.90;;;9.39;100.00;98162.34;5067666;28;20036;-82
2023/12/21 09:22:15;;;;;;;1.45;0.70;;;8.80;99.90;;;9.41;100.00;98173.00;5070262;28;20100;-83
2023/12/21 09:24:41;;;;;;;1.20;0.63;;;8.80;99.90;;;9.35;100.00;98175.69;5081706;28;20032;-81
2023/12/21 09:27:07;;;;;;;1.55;0.70;;;8.90;99.90;;;9.53;100.00;98159.13;5069614;28;20049;-81
2023/12/21 09:29:32;;;;;;;1.13;0.52;;;8.90;99.90;;;9.48;100.00;98173.53;5070884;28;20040;-82
2023/12/21 09:31:59;;;;;;;1.25;0.63;;;8.90;99.90;;;9.45;100.00;98168.63;5069948;28;22089;-80
2023/12/21 09:34:25;;;;;;;2.33;0.60;;;9.00;99.90;;;9.41;100.00;98143.06;5071236;28;20115;-82
2023/12/21 09:36:53;;;;;;;0.60;0.40;;;9.00;99.90;;;9.45;100.00;98130.53;5052907;28;20048;-83
2023/12/21 09:39:19;;;;;;;1.02;0.60;;;9.00;99.90;;;9.44;100.00;98137.91;5074485;28;20388;-79
2023/12/21 09:41:45;;;;;;;0.55;0.30;;;9.10;99.90;;;9.49;100.00;98140.63;5068755;28;20033;-80
2023/12/21 09:44:17;;;;;;;0.90;0.60;;;9.10;99.90;;;9.48;100.00;98125.38;5084997;28;20497;-82
2023/12/21 09:46:48;;;;;;;0.77;0.47;;;9.00;99.90;;;9.61;100.00;98123.19;5075688;28;20511;-79
2023/12/21 09:49:14;;;;;;;1.10;0.63;;;9.00;99.90;;;9.64;100.00;98117.19;5073281;28;20029;-80
2023/12/21 09:51:41;;;;;;;0.88;0.50;;;9.10;99.90;;;9.61;100.00;98110.41;5059317;28;20036;-80
2023/12/21 09:54:09;;;;;;;1.15;0.50;;;9.10;99.90;;;9.54;100.00;98107.13;5079126;28;20133;-81
2023/12/21 09:56:36;;;;;;;1.55;0.50;;;9.10;99.90;;;9.64;100.00;98118.03;5059385;28;20082;-81
2023/12/21 09:59:03;;;;;;;2.55;0.70;;;9.10;99.90;;;9.62;100.00;98070.38;5073627;28;20041;-81
2023/12/21 10:01:29;;;;;;;0.40;0.40;;;9.20;99.90;;;9.64;100.00;98081.81;5073272;28;20036;-78
2023/12/21 10:03:57;;;;;;;1.23;0.50;;;9.20;99.90;;;9.74;100.00;98064.66;5043844;28;20804;-79
2023/12/21 10:06:24;;;;;;;0.88;0.50;;;9.10;99.90;;;9.63;100.00;98064.66;5076610;28;20040;-82
2023/12/21 10:08:51;;;;;;;1.00;0.45;;;9.20;99.90;;;9.77;100.00;98059.47;5072233;28;20036;-79
2023/12/21 10:11:18;;;;;;;0.60;0.57;;;9.20;99.90;;;9.80;100.00;98055.38;5079502;28;20384;-82
2023/12/21 10:13:47;;;;;;;1.33;0.40;;;9.30;99.90;;;9.73;100.00;98019.47;5075038;28;20037;-81
2023/12/21 10:16:13;;;;;;;0.95;0.22;;;9.30;99.90;;;9.76;100.00;98044.22;5077049;28;20032;-80
2023/12/21 10:18:40;;;;;;;0.90;0.30;;;9.30;99.90;;;9.82;100.00;98017.81;5074946;28;20029;-81
2023/12/21 10:21:08;;;;;;;0.30;0.30;;;9.30;99.90;;;9.80;100.00;98017.25;5069595;28;20031;-82